sensor_id;sensor_type;location;lat;lon;timestamp;P1;durP1;ratioP1;P2;durP2;ratioP2
84246;SDS011;74385;53.360;6.290;2024-01-11T00:00:45;22.08;;;11.07;;
84246;SDS011;74385;53.360;6.290;2024-01-11T00:03:11;19.20;;;10.82;;
84246;SDS011;74385;53.360;6.290;2024-01-11T00:05:38;19.42;;;8.80;;
84246;SDS011;74385;53.360;6.290;2024-01-11T00:08:05;22.63;;;11.13;;
84246;SDS011;74385;53.360;6.290;2024-01-11T00:10:31;22.08;;;10.65;;
84246;SDS011;74385;53.360;6.290;2024-01-11T00:12:57;24.33;;;10.95;;
84246;SDS011;74385;53.360;6.290;2024-01-11T00:15:23;23.98;;;11.27;;
84246;SDS011;74385;53.360;6.290;2024-01-11T00:17:49;20.77;;;9.77;;
84246;SDS011;74385;53.360;6.290;2024-01-11T00:20:15;26.00;;;10.88;;
84246;SDS011;74385;53.360;6.290;2024-01-11T00:22:43;22.92;;;10.90;;
84246;SDS011;74385;53.360;6.290;2024-01-11T00:25:09;22.20;;;10.70;;
84246;SDS011;74385;53.360;6.290;2024-01-11T00:27:35;23.63;;;10.48;;
84246;SDS011;74385;53.360;6.290;2024-01-11T00:30:01;20.98;;;9.73;;
84246;SDS011;74385;53.360;6.290;2024-01-11T00:32:29;21.33;;;10.27;;
84246;SDS011;74385;53.360;6.290;2024-01-11T00:34:55;26.02;;;10.88;;
84246;SDS011;74385;53.360;6.290;2024-01-11T00:37:21;27.70;;;11.82;;
84246;SDS011;74385;53.360;6.290;2024-01-11T00:39:47;22.33;;;9.65;;
84246;SDS011;74385;53.360;6.290;2024-01-11T00:42:13;23.95;;;11.30;;
84246;SDS011;74385;53.360;6.290;2024-01-11T00:44:39;26.48;;;11.40;;
84246;SDS011;74385;53.360;6.290;2024-01-11T00:47:05;24.10;;;11.40;;
84246;SDS011;74385;53.360;6.290;2024-01-11T00:49:31;22.95;;;11.68;;
84246;SDS011;74385;53.360;6.290;2024-01-11T00:51:57;22.92;;;9.98;;
84246;SDS011;74385;53.360;6.290;2024-01-11T00:54:23;25.40;;;11.35;;
84246;SDS011;74385;53.360;6.290;2024-01-11T00:56:50;23.27;;;11.13;;
84246;SDS011;74385;53.360;6.290;2024-01-11T00:59:16;26.00;;;12.40;;
84246;SDS011;74385;53.360;6.290;2024-01-11T01:01:48;25.67;;;11.38;;
84246;SDS011;74385;53.360;6.290;2024-01-11T01:04:15;25.80;;;11.60;;
84246;SDS011;74385;53.360;6.290;2024-01-11T01:06:41;22.50;;;10.60;;
84246;SDS011;74385;53.360;6.290;2024-01-11T01:09:07;22.58;;;11.18;;
84246;SDS011;74385;53.360;6.290;2024-01-11T01:11:34;21.90;;;10.27;;
84246;SDS011;74385;53.360;6.290;2024-01-11T01:14:00;23.92;;;11.98;;
84246;SDS011;74385;53.360;6.290;2024-01-11T01:16:26;23.00;;;11.02;;
84246;SDS011;74385;53.360;6.290;2024-01-11T01:18:52;24.55;;;11.43;;
84246;SDS011;74385;53.360;6.290;2024-01-11T01:21:18;25.23;;;11.35;;
84246;SDS011;74385;53.360;6.290;2024-01-11T01:23:44;26.23;;;11.40;;
84246;SDS011;74385;53.360;6.290;2024-01-11T01:26:10;21.58;;;11.70;;
84246;SDS011;74385;53.360;6.290;2024-01-11T01:28:36;27.83;;;12.55;;
84246;SDS011;74385;53.360;6.290;2024-01-11T01:31:02;26.17;;;11.85;;
84246;SDS011;74385;53.360;6.290;2024-01-11T01:33:29;23.70;;;11.80;;
84246;SDS011;74385;53.360;6.290;2024-01-11T01:35:55;29.70;;;11.65;;
84246;SDS011;74385;53.360;6.290;2024-01-11T01:38:21;22.95;;;11.00;;
84246;SDS011;74385;53.360;6.290;2024-01-11T01:40:48;28.15;;;11.90;;
84246;SDS011;74385;53.360;6.290;2024-01-11T01:43:14;23.33;;;11.98;;
84246;SDS011;74385;53.360;6.290;2024-01-11T01:45:40;25.88;;;11.98;;
84246;SDS011;74385;53.360;6.290;2024-01-11T01:48:06;25.33;;;10.90;;
84246;SDS011;74385;53.360;6.290;2024-01-11T01:50:33;27.45;;;12.98;;
84246;SDS011;74385;53.360;6.290;2024-01-11T01:52:59;23.42;;;10.73;;
84246;SDS011;74385;53.360;6.290;2024-01-11T01:55:26;26.55;;;12.57;;
84246;SDS011;74385;53.360;6.290;2024-01-11T01:57:52;23.08;;;11.77;;
84246;SDS011;74385;53.360;6.290;2024-01-11T02:00:19;24.75;;;11.93;;
84246;SDS011;74385;53.360;6.290;2024-01-11T02:02:45;27.65;;;11.80;;
84246;SDS011;74385;53.360;6.290;2024-01-11T02:05:12;21.88;;;11.45;;
84246;SDS011;74385;53.360;6.290;2024-01-11T02:07:39;24.63;;;11.73;;
84246;SDS011;74385;53.360;6.290;2024-01-11T02:10:05;24.35;;;12.13;;
84246;SDS011;74385;53.360;6.290;2024-01-11T02:12:33;27.08;;;11.52;;
84246;SDS011;74385;53.360;6.290;2024-01-11T02:15:00;23.42;;;10.73;;
84246;SDS011;74385;53.360;6.290;2024-01-11T02:17:28;22.40;;;11.82;;
84246;SDS011;74385;53.360;6.290;2024-01-11T02:19:54;24.02;;;10.80;;
84246;SDS011;74385;53.360;6.290;2024-01-11T02:22:22;24.73;;;12.00;;
84246;SDS011;74385;53.360;6.290;2024-01-11T02:24:49;25.42;;;11.80;;
84246;SDS011;74385;53.360;6.290;2024-01-11T02:27:16;26.77;;;11.48;;
84246;SDS011;74385;53.360;6.290;2024-01-11T02:29:42;25.63;;;11.88;;
84246;SDS011;74385;53.360;6.290;2024-01-11T02:32:08;27.48;;;12.05;;
84246;SDS011;74385;53.360;6.290;2024-01-11T02:34:34;26.58;;;11.43;;
84246;SDS011;74385;53.360;6.290;2024-01-11T02:37:01;24.73;;;12.20;;
84246;SDS011;74385;53.360;6.290;2024-01-11T02:39:28;27.23;;;12.90;;
84246;SDS011;74385;53.360;6.290;2024-01-11T02:41:55;23.75;;;11.80;;
84246;SDS011;74385;53.360;6.290;2024-01-11T02:44:22;20.52;;;11.07;;
84246;SDS011;74385;53.360;6.290;2024-01-11T02:46:48;24.73;;;11.43;;
84246;SDS011;74385;53.360;6.290;2024-01-11T02:49:15;26.23;;;11.20;;
84246;SDS011;74385;53.360;6.290;2024-01-11T02:51:41;20.98;;;9.82;;
84246;SDS011;74385;53.360;6.290;2024-01-11T02:54:07;24.10;;;12.18;;
84246;SDS011;74385;53.360;6.290;2024-01-11T02:56:33;28.45;;;12.02;;
84246;SDS011;74385;53.360;6.290;2024-01-11T02:58:59;29.58;;;12.77;;
84246;SDS011;74385;53.360;6.290;2024-01-11T03:01:26;22.25;;;12.05;;
84246;SDS011;74385;53.360;6.290;2024-01-11T03:03:52;29.48;;;13.00;;
84246;SDS011;74385;53.360;6.290;2024-01-11T03:06:19;27.05;;;11.88;;
84246;SDS011;74385;53.360;6.290;2024-01-11T03:08:49;26.00;;;11.75;;
84246;SDS011;74385;53.360;6.290;2024-01-11T03:11:15;27.95;;;12.45;;
84246;SDS011;74385;53.360;6.290;2024-01-11T03:13:41;26.85;;;12.65;;
84246;SDS011;74385;53.360;6.290;2024-01-11T03:16:09;28.60;;;13.15;;
84246;SDS011;74385;53.360;6.290;2024-01-11T03:18:35;22.92;;;11.95;;
84246;SDS011;74385;53.360;6.290;2024-01-11T03:21:01;24.90;;;11.52;;
84246;SDS011;74385;53.360;6.290;2024-01-11T03:23:27;27.00;;;12.90;;
84246;SDS011;74385;53.360;6.290;2024-01-11T03:25:53;26.60;;;12.50;;
84246;SDS011;74385;53.360;6.290;2024-01-11T03:28:19;26.02;;;11.27;;
84246;SDS011;74385;53.360;6.290;2024-01-11T03:30:45;25.77;;;12.35;;
84246;SDS011;74385;53.360;6.290;2024-01-11T03:33:11;25.08;;;12.65;;
84246;SDS011;74385;53.360;6.290;2024-01-11T03:35:37;27.30;;;12.82;;
84246;SDS011;74385;53.360;6.290;2024-01-11T03:38:09;26.73;;;12.85;;
84246;SDS011;74385;53.360;6.290;2024-01-11T03:40:36;26.45;;;12.13;;
84246;SDS011;74385;53.360;6.290;2024-01-11T03:43:02;28.33;;;13.23;;
84246;SDS011;74385;53.360;6.290;2024-01-11T03:45:28;29.23;;;13.23;;
84246;SDS011;74385;53.360;6.290;2024-01-11T03:47:54;28.02;;;12.77;;
84246;SDS011;74385;53.360;6.290;2024-01-11T03:50:20;22.27;;;11.23;;
84246;SDS011;74385;53.360;6.290;2024-01-11T03:52:46;24.67;;;11.55;;
84246;SDS011;74385;53.360;6.290;2024-01-11T03:55:12;27.20;;;13.23;;
84246;SDS011;74385;53.360;6.290;2024-01-11T03:57:38;26.98;;;13.15;;
84246;SDS011;74385;53.360;6.290;2024-01-11T04:00:05;26.77;;;12.15;;
84246;SDS011;74385;53.360;6.290;2024-01-11T04:02:31;32.50;;;13.27;;
84246;SDS011;74385;53.360;6.290;2024-01-11T04:04:57;34.33;;;14.77;;
84246;SDS011;74385;53.360;6.290;2024-01-11T04:07:23;32.88;;;14.45;;
84246;SDS011;74385;53.360;6.290;2024-01-11T04:09:49;24.95;;;12.60;;
84246;SDS011;74385;53.360;6.290;2024-01-11T04:12:15;25.52;;;12.98;;
84246;SDS011;74385;53.360;6.290;2024-01-11T04:14:41;28.75;;;12.95;;
84246;SDS011;74385;53.360;6.290;2024-01-11T04:17:09;30.27;;;13.45;;
84246;SDS011;74385;53.360;6.290;2024-01-11T04:19:35;28.33;;;13.35;;
84246;SDS011;74385;53.360;6.290;2024-01-11T04:22:01;30.75;;;13.38;;
84246;SDS011;74385;53.360;6.290;2024-01-11T04:24:27;29.95;;;13.57;;
84246;SDS011;74385;53.360;6.290;2024-01-11T04:26:53;24.55;;;12.80;;
84246;SDS011;74385;53.360;6.290;2024-01-11T04:29:19;27.83;;;13.70;;
84246;SDS011;74385;53.360;6.290;2024-01-11T04:31:45;30.50;;;14.27;;
84246;SDS011;74385;53.360;6.290;2024-01-11T04:34:11;28.50;;;12.95;;
84246;SDS011;74385;53.360;6.290;2024-01-11T04:36:37;26.13;;;12.63;;
84246;SDS011;74385;53.360;6.290;2024-01-11T04:39:04;28.77;;;12.60;;
84246;SDS011;74385;53.360;6.290;2024-01-11T04:41:31;32.17;;;15.45;;
84246;SDS011;74385;53.360;6.290;2024-01-11T04:43:58;28.55;;;13.25;;
84246;SDS011;74385;53.360;6.290;2024-01-11T04:46:24;28.63;;;13.02;;
84246;SDS011;74385;53.360;6.290;2024-01-11T04:48:50;32.50;;;14.00;;
84246;SDS011;74385;53.360;6.290;2024-01-11T04:51:16;29.25;;;13.48;;
84246;SDS011;74385;53.360;6.290;2024-01-11T04:53:43;28.55;;;14.63;;
84246;SDS011;74385;53.360;6.290;2024-01-11T04:56:11;29.13;;;13.77;;
84246;SDS011;74385;53.360;6.290;2024-01-11T04:58:39;26.45;;;13.07;;
84246;SDS011;74385;53.360;6.290;2024-01-11T05:01:05;32.97;;;14.52;;
84246;SDS011;74385;53.360;6.290;2024-01-11T05:03:32;27.33;;;12.98;;
84246;SDS011;74385;53.360;6.290;2024-01-11T05:05:58;26.80;;;13.13;;
84246;SDS011;74385;53.360;6.290;2024-01-11T05:08:27;27.23;;;14.30;;
84246;SDS011;74385;53.360;6.290;2024-01-11T05:13:20;29.98;;;13.65;;
84246;SDS011;74385;53.360;6.290;2024-01-11T05:15:46;27.85;;;12.82;;
84246;SDS011;74385;53.360;6.290;2024-01-11T05:18:13;28.00;;;13.68;;
84246;SDS011;74385;53.360;6.290;2024-01-11T05:20:39;33.03;;;14.40;;
84246;SDS011;74385;53.360;6.290;2024-01-11T05:23:05;28.33;;;14.07;;
84246;SDS011;74385;53.360;6.290;2024-01-11T05:25:31;31.98;;;15.70;;
84246;SDS011;74385;53.360;6.290;2024-01-11T05:28:01;32.20;;;14.73;;
84246;SDS011;74385;53.360;6.290;2024-01-11T05:30:27;25.27;;;11.80;;
84246;SDS011;74385;53.360;6.290;2024-01-11T05:32:54;30.60;;;13.93;;
84246;SDS011;74385;53.360;6.290;2024-01-11T05:35:20;31.42;;;13.15;;
84246;SDS011;74385;53.360;6.290;2024-01-11T05:37:47;26.73;;;13.32;;
84246;SDS011;74385;53.360;6.290;2024-01-11T05:40:13;30.88;;;14.30;;
84246;SDS011;74385;53.360;6.290;2024-01-11T05:42:39;28.60;;;14.10;;
84246;SDS011;74385;53.360;6.290;2024-01-11T05:45:05;31.33;;;14.35;;
84246;SDS011;74385;53.360;6.290;2024-01-11T05:47:31;31.42;;;14.18;;
84246;SDS011;74385;53.360;6.290;2024-01-11T05:49:57;27.00;;;13.00;;
84246;SDS011;74385;53.360;6.290;2024-01-11T05:52:24;28.65;;;12.38;;
84246;SDS011;74385;53.360;6.290;2024-01-11T05:54:50;25.90;;;12.82;;
84246;SDS011;74385;53.360;6.290;2024-01-11T05:57:17;24.25;;;11.10;;
84246;SDS011;74385;53.360;6.290;2024-01-11T05:59:44;28.40;;;11.02;;
84246;SDS011;74385;53.360;6.290;2024-01-11T06:02:10;28.92;;;13.18;;
84246;SDS011;74385;53.360;6.290;2024-01-11T06:04:36;27.80;;;13.80;;
84246;SDS011;74385;53.360;6.290;2024-01-11T06:07:03;30.33;;;14.57;;
84246;SDS011;74385;53.360;6.290;2024-01-11T06:09:29;24.45;;;12.38;;
84246;SDS011;74385;53.360;6.290;2024-01-11T06:11:55;25.33;;;11.80;;
84246;SDS011;74385;53.360;6.290;2024-01-11T06:14:21;30.48;;;14.20;;
84246;SDS011;74385;53.360;6.290;2024-01-11T06:16:47;29.90;;;12.05;;
84246;SDS011;74385;53.360;6.290;2024-01-11T06:19:13;27.80;;;12.35;;
84246;SDS011;74385;53.360;6.290;2024-01-11T06:21:39;30.35;;;12.55;;
84246;SDS011;74385;53.360;6.290;2024-01-11T06:24:06;29.55;;;14.07;;
84246;SDS011;74385;53.360;6.290;2024-01-11T06:26:32;27.05;;;11.25;;
84246;SDS011;74385;53.360;6.290;2024-01-11T06:28:58;31.63;;;12.25;;
84246;SDS011;74385;53.360;6.290;2024-01-11T06:31:24;30.05;;;12.45;;
84246;SDS011;74385;53.360;6.290;2024-01-11T06:33:50;28.73;;;13.43;;
84246;SDS011;74385;53.360;6.290;2024-01-11T06:36:17;25.27;;;11.35;;
84246;SDS011;74385;53.360;6.290;2024-01-11T06:38:43;29.85;;;14.23;;
84246;SDS011;74385;53.360;6.290;2024-01-11T06:41:09;23.45;;;11.18;;
84246;SDS011;74385;53.360;6.290;2024-01-11T06:43:35;30.75;;;14.25;;
84246;SDS011;74385;53.360;6.290;2024-01-11T06:46:02;29.80;;;14.45;;
84246;SDS011;74385;53.360;6.290;2024-01-11T06:48:28;30.20;;;13.32;;
84246;SDS011;74385;53.360;6.290;2024-01-11T06:50:54;32.53;;;14.77;;
84246;SDS011;74385;53.360;6.290;2024-01-11T06:53:20;34.20;;;13.65;;
84246;SDS011;74385;53.360;6.290;2024-01-11T06:55:46;28.63;;;12.65;;
84246;SDS011;74385;53.360;6.290;2024-01-11T06:58:13;28.40;;;12.88;;
84246;SDS011;74385;53.360;6.290;2024-01-11T07:00:39;26.85;;;13.10;;
84246;SDS011;74385;53.360;6.290;2024-01-11T07:03:08;29.13;;;11.85;;
84246;SDS011;74385;53.360;6.290;2024-01-11T07:05:35;31.40;;;13.80;;
84246;SDS011;74385;53.360;6.290;2024-01-11T07:08:02;25.58;;;12.38;;
84246;SDS011;74385;53.360;6.290;2024-01-11T07:10:29;28.70;;;12.55;;
84246;SDS011;74385;53.360;6.290;2024-01-11T07:12:55;30.02;;;14.25;;
84246;SDS011;74385;53.360;6.290;2024-01-11T07:15:21;31.75;;;13.40;;
84246;SDS011;74385;53.360;6.290;2024-01-11T07:17:48;28.08;;;13.45;;
84246;SDS011;74385;53.360;6.290;2024-01-11T07:20:14;28.73;;;13.43;;
84246;SDS011;74385;53.360;6.290;2024-01-11T07:22:42;25.48;;;11.60;;
84246;SDS011;74385;53.360;6.290;2024-01-11T07:25:08;20.85;;;10.73;;
84246;SDS011;74385;53.360;6.290;2024-01-11T07:27:34;25.17;;;12.20;;
84246;SDS011;74385;53.360;6.290;2024-01-11T07:30:01;26.20;;;12.45;;
84246;SDS011;74385;53.360;6.290;2024-01-11T07:32:28;24.52;;;12.10;;
84246;SDS011;74385;53.360;6.290;2024-01-11T07:34:54;29.25;;;13.20;;
84246;SDS011;74385;53.360;6.290;2024-01-11T07:37:20;29.15;;;14.00;;
84246;SDS011;74385;53.360;6.290;2024-01-11T07:39:46;27.45;;;12.55;;
84246;SDS011;74385;53.360;6.290;2024-01-11T07:42:13;23.70;;;10.63;;
84246;SDS011;74385;53.360;6.290;2024-01-11T07:44:41;28.15;;;12.57;;
84246;SDS011;74385;53.360;6.290;2024-01-11T07:47:07;26.52;;;12.07;;
84246;SDS011;74385;53.360;6.290;2024-01-11T07:49:33;25.40;;;10.73;;
84246;SDS011;74385;53.360;6.290;2024-01-11T07:51:59;22.90;;;11.63;;
84246;SDS011;74385;53.360;6.290;2024-01-11T07:54:25;28.33;;;13.48;;
84246;SDS011;74385;53.360;6.290;2024-01-11T07:56:51;28.70;;;12.32;;
84246;SDS011;74385;53.360;6.290;2024-01-11T07:59:17;27.50;;;13.57;;
84246;SDS011;74385;53.360;6.290;2024-01-11T08:01:43;25.30;;;12.82;;
84246;SDS011;74385;53.360;6.290;2024-01-11T08:04:10;26.48;;;12.60;;
84246;SDS011;74385;53.360;6.290;2024-01-11T08:06:36;24.85;;;11.02;;
84246;SDS011;74385;53.360;6.290;2024-01-11T08:09:03;29.13;;;14.10;;
84246;SDS011;74385;53.360;6.290;2024-01-11T08:11:30;30.75;;;13.25;;
84246;SDS011;74385;53.360;6.290;2024-01-11T08:13:57;26.58;;;13.45;;
84246;SDS011;74385;53.360;6.290;2024-01-11T08:16:23;24.08;;;12.68;;
84246;SDS011;74385;53.360;6.290;2024-01-11T08:18:49;25.88;;;12.15;;
84246;SDS011;74385;53.360;6.290;2024-01-11T08:21:16;29.15;;;12.38;;
84246;SDS011;74385;53.360;6.290;2024-01-11T08:23:42;20.73;;;11.05;;
84246;SDS011;74385;53.360;6.290;2024-01-11T08:26:14;27.30;;;11.65;;
84246;SDS011;74385;53.360;6.290;2024-01-11T08:28:40;21.70;;;10.45;;
84246;SDS011;74385;53.360;6.290;2024-01-11T08:31:06;28.65;;;12.82;;
84246;SDS011;74385;53.360;6.290;2024-01-11T08:33:33;22.38;;;10.70;;
84246;SDS011;74385;53.360;6.290;2024-01-11T08:35:59;23.60;;;11.65;;
84246;SDS011;74385;53.360;6.290;2024-01-11T08:38:25;22.33;;;12.05;;
84246;SDS011;74385;53.360;6.290;2024-01-11T08:40:51;27.13;;;12.00;;
84246;SDS011;74385;53.360;6.290;2024-01-11T08:43:17;28.15;;;14.10;;
84246;SDS011;74385;53.360;6.290;2024-01-11T08:45:43;26.83;;;12.80;;
84246;SDS011;74385;53.360;6.290;2024-01-11T08:48:09;23.25;;;13.02;;
84246;SDS011;74385;53.360;6.290;2024-01-11T08:50:36;27.08;;;12.88;;
84246;SDS011;74385;53.360;6.290;2024-01-11T08:53:02;25.90;;;13.02;;
84246;SDS011;74385;53.360;6.290;2024-01-11T08:55:28;24.15;;;13.15;;
84246;SDS011;74385;53.360;6.290;2024-01-11T08:57:54;22.30;;;11.57;;
84246;SDS011;74385;53.360;6.290;2024-01-11T09:00:21;25.45;;;11.25;;
84246;SDS011;74385;53.360;6.290;2024-01-11T09:02:47;25.80;;;11.45;;
84246;SDS011;74385;53.360;6.290;2024-01-11T09:05:16;24.17;;;11.82;;
84246;SDS011;74385;53.360;6.290;2024-01-11T09:07:42;22.42;;;11.23;;
84246;SDS011;74385;53.360;6.290;2024-01-11T09:10:08;28.45;;;11.20;;
84246;SDS011;74385;53.360;6.290;2024-01-11T09:12:35;17.73;;;8.40;;
84246;SDS011;74385;53.360;6.290;2024-01-11T09:15:01;19.58;;;10.70;;
84246;SDS011;74385;53.360;6.290;2024-01-11T09:17:27;24.05;;;11.60;;
84246;SDS011;74385;53.360;6.290;2024-01-11T09:19:53;21.30;;;10.23;;
84246;SDS011;74385;53.360;6.290;2024-01-11T09:22:19;23.67;;;10.02;;
84246;SDS011;74385;53.360;6.290;2024-01-11T09:24:45;24.52;;;11.27;;
84246;SDS011;74385;53.360;6.290;2024-01-11T09:27:12;20.42;;;9.23;;
84246;SDS011;74385;53.360;6.290;2024-01-11T09:29:44;21.75;;;11.70;;
84246;SDS011;74385;53.360;6.290;2024-01-11T09:32:11;24.05;;;10.75;;
84246;SDS011;74385;53.360;6.290;2024-01-11T09:34:38;25.70;;;12.73;;
84246;SDS011;74385;53.360;6.290;2024-01-11T09:37:04;26.48;;;11.45;;
84246;SDS011;74385;53.360;6.290;2024-01-11T09:39:30;26.40;;;11.27;;
84246;SDS011;74385;53.360;6.290;2024-01-11T09:42:03;20.83;;;10.40;;
84246;SDS011;74385;53.360;6.290;2024-01-11T09:44:32;23.02;;;11.85;;
84246;SDS011;74385;53.360;6.290;2024-01-11T09:46:59;24.27;;;11.20;;
84246;SDS011;74385;53.360;6.290;2024-01-11T09:49:26;26.40;;;10.60;;
84246;SDS011;74385;53.360;6.290;2024-01-11T09:51:53;22.25;;;11.77;;
84246;SDS011;74385;53.360;6.290;2024-01-11T09:54:22;20.88;;;10.55;;
84246;SDS011;74385;53.360;6.290;2024-01-11T09:56:49;26.20;;;11.88;;
84246;SDS011;74385;53.360;6.290;2024-01-11T09:59:19;22.98;;;10.77;;
84246;SDS011;74385;53.360;6.290;2024-01-11T10:01:49;21.88;;;10.40;;
84246;SDS011;74385;53.360;6.290;2024-01-11T10:04:15;22.25;;;10.93;;
84246;SDS011;74385;53.360;6.290;2024-01-11T10:06:41;24.80;;;10.90;;
84246;SDS011;74385;53.360;6.290;2024-01-11T10:09:08;22.98;;;11.23;;
84246;SDS011;74385;53.360;6.290;2024-01-11T10:11:34;25.23;;;11.48;;
84246;SDS011;74385;53.360;6.290;2024-01-11T10:14:00;23.38;;;12.00;;
84246;SDS011;74385;53.360;6.290;2024-01-11T10:16:29;22.90;;;12.00;;
84246;SDS011;74385;53.360;6.290;2024-01-11T10:18:55;23.80;;;11.35;;
84246;SDS011;74385;53.360;6.290;2024-01-11T10:21:22;17.27;;;9.05;;
84246;SDS011;74385;53.360;6.290;2024-01-11T10:23:49;22.65;;;11.35;;
84246;SDS011;74385;53.360;6.290;2024-01-11T10:26:15;23.40;;;10.07;;
84246;SDS011;74385;53.360;6.290;2024-01-11T10:28:45;21.77;;;11.20;;
84246;SDS011;74385;53.360;6.290;2024-01-11T10:33:37;23.23;;;11.30;;
84246;SDS011;74385;53.360;6.290;2024-01-11T10:36:04;22.60;;;11.07;;
84246;SDS011;74385;53.360;6.290;2024-01-11T10:38:39;22.90;;;10.75;;
84246;SDS011;74385;53.360;6.290;2024-01-11T10:41:06;24.33;;;10.70;;
84246;SDS011;74385;53.360;6.290;2024-01-11T10:43:32;23.73;;;10.60;;
84246;SDS011;74385;53.360;6.290;2024-01-11T10:46:00;17.98;;;9.52;;
84246;SDS011;74385;53.360;6.290;2024-01-11T10:50:57;21.02;;;9.38;;
84246;SDS011;74385;53.360;6.290;2024-01-11T10:53:43;19.65;;;10.18;;
84246;SDS011;74385;53.360;6.290;2024-01-11T10:56:10;23.45;;;10.02;;
84246;SDS011;74385;53.360;6.290;2024-01-11T10:58:41;25.92;;;10.20;;
84246;SDS011;74385;53.360;6.290;2024-01-11T11:01:11;23.45;;;10.95;;
84246;SDS011;74385;53.360;6.290;2024-01-11T11:03:37;24.15;;;10.25;;
84246;SDS011;74385;53.360;6.290;2024-01-11T11:06:04;19.05;;;9.57;;
84246;SDS011;74385;53.360;6.290;2024-01-11T11:08:31;20.58;;;10.48;;
84246;SDS011;74385;53.360;6.290;2024-01-11T11:10:58;21.85;;;11.13;;
84246;SDS011;74385;53.360;6.290;2024-01-11T11:13:24;22.00;;;10.25;;
84246;SDS011;74385;53.360;6.290;2024-01-11T11:15:51;20.13;;;9.65;;
84246;SDS011;74385;53.360;6.290;2024-01-11T11:18:17;22.50;;;9.50;;
84246;SDS011;74385;53.360;6.290;2024-01-11T11:20:47;19.10;;;8.93;;
84246;SDS011;74385;53.360;6.290;2024-01-11T11:23:16;18.80;;;9.82;;
84246;SDS011;74385;53.360;6.290;2024-01-11T11:25:44;22.77;;;10.05;;
84246;SDS011;74385;53.360;6.290;2024-01-11T11:28:11;19.55;;;9.93;;
84246;SDS011;74385;53.360;6.290;2024-01-11T11:30:49;24.08;;;10.05;;
84246;SDS011;74385;53.360;6.290;2024-01-11T11:33:32;16.00;;;8.00;;
84246;SDS011;74385;53.360;6.290;2024-01-11T11:36:09;14.80;;;8.15;;
84246;SDS011;74385;53.360;6.290;2024-01-11T11:38:39;18.63;;;9.57;;
84246;SDS011;74385;53.360;6.290;2024-01-11T11:41:06;20.10;;;9.50;;
84246;SDS011;74385;53.360;6.290;2024-01-11T11:43:32;20.20;;;8.88;;
84246;SDS011;74385;53.360;6.290;2024-01-11T11:45:59;17.30;;;7.80;;
84246;SDS011;74385;53.360;6.290;2024-01-11T11:51:13;17.50;;;7.60;;
84246;SDS011;74385;53.360;6.290;2024-01-11T11:53:40;20.17;;;8.18;;
84246;SDS011;74385;53.360;6.290;2024-01-11T11:56:07;21.02;;;8.35;;
84246;SDS011;74385;53.360;6.290;2024-01-11T11:58:42;15.63;;;7.60;;
84246;SDS011;74385;53.360;6.290;2024-01-11T12:01:08;18.88;;;9.15;;
84246;SDS011;74385;53.360;6.290;2024-01-11T12:03:35;20.63;;;9.32;;
84246;SDS011;74385;53.360;6.290;2024-01-11T12:06:05;17.98;;;7.95;;
84246;SDS011;74385;53.360;6.290;2024-01-11T12:08:32;20.88;;;9.15;;
84246;SDS011;74385;53.360;6.290;2024-01-11T12:11:08;21.90;;;9.30;;
84246;SDS011;74385;53.360;6.290;2024-01-11T12:13:34;17.67;;;8.75;;
84246;SDS011;74385;53.360;6.290;2024-01-11T12:16:01;23.65;;;8.57;;
84246;SDS011;74385;53.360;6.290;2024-01-11T12:18:27;18.77;;;8.52;;
84246;SDS011;74385;53.360;6.290;2024-01-11T12:20:53;21.13;;;8.55;;
84246;SDS011;74385;53.360;6.290;2024-01-11T12:23:19;21.17;;;8.95;;
84246;SDS011;74385;53.360;6.290;2024-01-11T12:25:45;18.67;;;7.55;;
84246;SDS011;74385;53.360;6.290;2024-01-11T12:28:12;16.95;;;6.63;;
84246;SDS011;74385;53.360;6.290;2024-01-11T12:30:38;10.57;;;3.60;;
84246;SDS011;74385;53.360;6.290;2024-01-11T12:33:04;15.85;;;2.45;;
84246;SDS011;74385;53.360;6.290;2024-01-11T12:35:31;16.17;;;2.80;;
84246;SDS011;74385;53.360;6.290;2024-01-11T12:38:01;13.75;;;6.40;;
84246;SDS011;74385;53.360;6.290;2024-01-11T12:40:27;13.57;;;6.80;;
84246;SDS011;74385;53.360;6.290;2024-01-11T12:42:53;16.40;;;6.28;;
84246;SDS011;74385;53.360;6.290;2024-01-11T12:45:19;15.85;;;6.03;;
84246;SDS011;74385;53.360;6.290;2024-01-11T12:47:46;16.65;;;5.63;;
84246;SDS011;74385;53.360;6.290;2024-01-11T12:50:12;15.18;;;6.03;;
84246;SDS011;74385;53.360;6.290;2024-01-11T12:52:38;19.95;;;7.20;;
84246;SDS011;74385;53.360;6.290;2024-01-11T12:55:08;16.60;;;7.78;;
84246;SDS011;74385;53.360;6.290;2024-01-11T12:57:43;21.73;;;7.00;;
84246;SDS011;74385;53.360;6.290;2024-01-11T13:00:09;17.60;;;7.00;;
84246;SDS011;74385;53.360;6.290;2024-01-11T13:02:36;19.10;;;6.50;;
84246;SDS011;74385;53.360;6.290;2024-01-11T13:05:02;16.55;;;7.95;;
84246;SDS011;74385;53.360;6.290;2024-01-11T13:07:30;21.02;;;6.28;;
84246;SDS011;74385;53.360;6.290;2024-01-11T13:09:57;19.17;;;4.60;;
84246;SDS011;74385;53.360;6.290;2024-01-11T13:12:23;14.38;;;3.97;;
84246;SDS011;74385;53.360;6.290;2024-01-11T13:14:49;18.98;;;2.80;;
84246;SDS011;74385;53.360;6.290;2024-01-11T13:17:17;18.17;;;3.00;;
84246;SDS011;74385;53.360;6.290;2024-01-11T13:19:43;18.17;;;2.60;;
84246;SDS011;74385;53.360;6.290;2024-01-11T13:22:10;25.92;;;2.60;;
84246;SDS011;74385;53.360;6.290;2024-01-11T13:24:36;17.55;;;2.40;;
84246;SDS011;74385;53.360;6.290;2024-01-11T13:27:02;22.35;;;2.55;;
84246;SDS011;74385;53.360;6.290;2024-01-11T13:29:28;23.55;;;3.00;;
84246;SDS011;74385;53.360;6.290;2024-01-11T13:31:54;14.90;;;1.75;;
84246;SDS011;74385;53.360;6.290;2024-01-11T13:34:20;19.30;;;3.08;;
84246;SDS011;74385;53.360;6.290;2024-01-11T13:36:46;11.77;;;3.03;;
84246;SDS011;74385;53.360;6.290;2024-01-11T13:39:13;17.00;;;2.72;;
84246;SDS011;74385;53.360;6.290;2024-01-11T13:41:39;11.00;;;3.35;;
84246;SDS011;74385;53.360;6.290;2024-01-11T13:44:06;21.15;;;2.78;;
84246;SDS011;74385;53.360;6.290;2024-01-11T13:46:32;10.48;;;2.33;;
84246;SDS011;74385;53.360;6.290;2024-01-11T13:48:58;15.13;;;2.20;;
84246;SDS011;74385;53.360;6.290;2024-01-11T13:51:24;18.23;;;2.60;;
84246;SDS011;74385;53.360;6.290;2024-01-11T13:53:50;18.42;;;3.83;;
84246;SDS011;74385;53.360;6.290;2024-01-11T13:56:16;14.80;;;2.90;;
84246;SDS011;74385;53.360;6.290;2024-01-11T13:58:42;14.95;;;2.80;;
84246;SDS011;74385;53.360;6.290;2024-01-11T14:01:10;21.25;;;2.47;;
84246;SDS011;74385;53.360;6.290;2024-01-11T14:03:37;20.80;;;4.78;;
84246;SDS011;74385;53.360;6.290;2024-01-11T14:06:03;16.73;;;2.53;;
84246;SDS011;74385;53.360;6.290;2024-01-11T14:08:29;16.48;;;2.28;;
84246;SDS011;74385;53.360;6.290;2024-01-11T14:10:55;21.27;;;3.10;;
84246;SDS011;74385;53.360;6.290;2024-01-11T14:13:21;26.00;;;3.65;;
84246;SDS011;74385;53.360;6.290;2024-01-11T14:15:47;14.63;;;3.10;;
84246;SDS011;74385;53.360;6.290;2024-01-11T14:18:15;19.05;;;2.80;;
84246;SDS011;74385;53.360;6.290;2024-01-11T14:20:41;16.73;;;2.05;;
84246;SDS011;74385;53.360;6.290;2024-01-11T14:23:07;11.32;;;2.60;;
84246;SDS011;74385;53.360;6.290;2024-01-11T14:25:34;15.02;;;2.50;;
84246;SDS011;74385;53.360;6.290;2024-01-11T14:28:00;19.92;;;3.00;;
84246;SDS011;74385;53.360;6.290;2024-01-11T14:30:26;14.38;;;2.38;;
84246;SDS011;74385;53.360;6.290;2024-01-11T14:32:52;17.25;;;2.67;;